createdAt,value
2019-02-18T00:00:25.008Z,3.90
2019-02-18T00:02:52.422Z,3.90
2019-02-18T00:05:19.737Z,3.80
2019-02-18T00:07:47.066Z,3.80
2019-02-18T00:10:14.372Z,3.80
2019-02-18T00:12:41.695Z,3.80
2019-02-18T00:15:09.069Z,3.80
2019-02-18T00:17:36.548Z,3.70
2019-02-18T00:20:04.385Z,3.80
2019-02-18T00:22:31.613Z,3.90
2019-02-18T00:24:58.941Z,3.80
2019-02-18T00:27:26.364Z,3.80
2019-02-18T00:29:53.693Z,3.70
2019-02-18T00:32:21.087Z,3.70
2019-02-18T00:34:48.528Z,3.70
2019-02-18T00:37:24.219Z,3.70
2019-02-18T00:39:45.073Z,3.70
2019-02-18T00:42:12.550Z,3.70
2019-02-18T00:44:39.976Z,3.70
2019-02-18T00:47:07.356Z,3.70
2019-02-18T00:49:34.735Z,3.70
2019-02-18T00:52:02.039Z,3.70
2019-02-18T00:54:29.360Z,3.70
2019-02-18T00:56:57.005Z,3.60
2019-02-18T00:59:24.421Z,3.70
2019-02-18T01:01:51.789Z,3.70
2019-02-18T01:04:19.082Z,3.70
2019-02-18T01:06:46.396Z,3.70
2019-02-18T01:09:13.703Z,3.80
2019-02-18T01:11:41.001Z,3.80
2019-02-18T01:14:08.339Z,3.80
2019-02-18T01:16:35.710Z,3.80
2019-02-18T01:19:03.054Z,3.80
2019-02-18T01:21:30.471Z,3.70
2019-02-18T01:23:58.201Z,3.60
2019-02-18T01:26:25.523Z,3.60
2019-02-18T01:28:52.956Z,3.50
2019-02-18T01:31:20.696Z,3.60
2019-02-18T01:33:48.023Z,3.50
2019-02-18T01:36:15.699Z,3.40
2019-02-18T01:38:43.032Z,3.30
2019-02-18T01:41:10.347Z,3.30
2019-02-18T01:43:37.663Z,3.20
2019-02-18T01:46:04.851Z,3.20
2019-02-18T01:48:32.171Z,3.30
2019-02-18T01:50:59.587Z,3.30
2019-02-18T01:53:26.854Z,3.30
2019-02-18T01:55:54.171Z,3.30
2019-02-18T01:58:21.463Z,3.30
2019-02-18T02:00:48.775Z,3.20
2019-02-18T02:03:16.067Z,3.20
2019-02-18T02:05:43.377Z,3.10
2019-02-18T02:08:10.754Z,3.10
2019-02-18T02:10:37.979Z,3.00
2019-02-18T02:13:24.318Z,3.00
2019-02-18T02:15:51.720Z,2.90
2019-02-18T02:18:19.009Z,2.90
2019-02-18T02:20:46.307Z,2.90
2019-02-18T02:23:13.574Z,2.90
2019-02-18T02:25:41.301Z,2.80
2019-02-18T02:28:08.705Z,2.80
2019-02-18T02:30:36.127Z,2.90
2019-02-18T02:33:03.502Z,2.90
2019-02-18T02:35:30.813Z,2.90
2019-02-18T02:38:07.338Z,2.80
2019-02-18T02:40:27.300Z,2.80
2019-02-18T02:42:54.631Z,2.90
2019-02-18T02:45:22.032Z,2.80
2019-02-18T02:47:49.344Z,2.70
2019-02-18T02:50:16.738Z,2.80
2019-02-18T02:52:44.155Z,2.70
2019-02-18T02:55:11.540Z,2.80
2019-02-18T02:57:38.851Z,2.70
2019-02-18T03:00:07.936Z,2.70
2019-02-18T03:02:35.192Z,2.60
2019-02-18T03:05:02.538Z,2.70
2019-02-18T03:07:29.825Z,2.50
2019-02-18T03:09:57.223Z,2.60
2019-02-18T03:12:24.629Z,2.60
2019-02-18T03:14:51.934Z,2.60
2019-02-18T03:17:19.417Z,2.60
2019-02-18T03:19:46.605Z,2.60
2019-02-18T03:22:13.927Z,2.70
2019-02-18T03:25:13.881Z,2.70
2019-02-18T03:27:41.279Z,2.70
2019-02-18T03:30:41.878Z,2.60
2019-02-18T03:33:10.300Z,2.60
2019-02-18T03:35:37.717Z,2.60
2019-02-18T03:38:05.333Z,2.60
2019-02-18T03:40:32.752Z,2.60
2019-02-18T03:43:00.033Z,2.50
2019-02-18T03:45:27.327Z,2.40
2019-02-18T03:47:54.989Z,2.50
2019-02-18T03:50:22.417Z,2.40
2019-02-18T03:52:49.687Z,2.40
2019-02-18T03:55:17.029Z,2.40
2019-02-18T03:57:44.357Z,2.30
2019-02-18T04:00:11.781Z,2.40
2019-02-18T04:02:39.098Z,2.30
2019-02-18T04:05:06.857Z,2.20
2019-02-18T04:07:34.279Z,2.20
2019-02-18T04:10:01.958Z,2.20
2019-02-18T04:12:29.241Z,2.10
2019-02-18T04:14:56.452Z,2.10
2019-02-18T04:17:23.866Z,2.00
2019-02-18T04:19:51.155Z,2.00
2019-02-18T04:22:18.813Z,1.90
2019-02-18T04:24:46.485Z,1.90
2019-02-18T04:27:13.828Z,1.80
2019-02-18T04:29:41.214Z,1.80
2019-02-18T04:32:08.617Z,1.80
2019-02-18T04:34:35.899Z,1.70
2019-02-18T04:37:03.237Z,1.70
2019-02-18T04:39:30.545Z,1.70
2019-02-18T04:41:57.851Z,1.60
2019-02-18T04:44:25.139Z,1.60
2019-02-18T04:46:52.439Z,1.50
2019-02-18T04:49:19.769Z,1.50
2019-02-18T04:51:47.145Z,1.40
2019-02-18T04:54:14.981Z,1.40
2019-02-18T04:56:42.637Z,1.30
2019-02-18T04:59:10.048Z,1.30
2019-02-18T05:01:37.349Z,1.30
2019-02-18T05:04:04.798Z,1.30
2019-02-18T05:06:32.076Z,1.40
2019-02-18T05:09:05.191Z,1.40
2019-02-18T05:11:28.690Z,1.50
2019-02-18T05:13:56.018Z,1.60
2019-02-18T05:16:23.396Z,1.70
2019-02-18T05:18:51.029Z,1.60
2019-02-18T05:21:18.371Z,1.60
2019-02-18T05:23:46.536Z,1.50
2019-02-18T05:26:13.925Z,1.50
2019-02-18T05:28:41.251Z,1.50
2019-02-18T05:31:08.641Z,1.30
2019-02-18T05:33:35.988Z,1.30
2019-02-18T05:36:03.585Z,1.20
2019-02-18T05:38:31.014Z,1.20
2019-02-18T05:40:58.317Z,1.20
2019-02-18T05:43:25.632Z,1.00
2019-02-18T05:45:53.020Z,1.00
2019-02-18T05:48:20.802Z,0.90
2019-02-18T05:50:48.088Z,0.80
2019-02-18T05:53:15.376Z,0.80
2019-02-18T05:55:42.656Z,0.70
2019-02-18T05:58:10.012Z,0.70
2019-02-18T06:00:37.452Z,0.70
2019-02-18T06:03:04.860Z,0.70
2019-02-18T06:05:32.294Z,0.70
2019-02-18T06:07:59.670Z,0.70
2019-02-18T06:10:27.043Z,0.60
2019-02-18T06:12:54.496Z,0.70
2019-02-18T06:15:22.214Z,0.70
2019-02-18T06:17:49.546Z,0.70
2019-02-18T06:20:16.940Z,0.70
2019-02-18T06:22:44.703Z,0.60
2019-02-18T06:25:12.097Z,0.60
2019-02-18T06:27:39.396Z,0.70
2019-02-18T06:30:07.636Z,0.60
2019-02-18T06:32:35.043Z,0.60
2019-02-18T06:35:02.489Z,0.70
2019-02-18T06:37:29.855Z,0.70
2019-02-18T06:39:57.261Z,0.70
2019-02-18T06:42:24.659Z,0.80
2019-02-18T06:45:03.918Z,0.80
2019-02-18T06:47:31.347Z,0.90
2019-02-18T06:49:58.666Z,0.80
2019-02-18T06:52:25.990Z,0.90
2019-02-18T06:54:53.363Z,0.90
2019-02-18T06:57:42.917Z,0.80
2019-02-18T07:00:20.603Z,0.80
2019-02-18T07:03:05.845Z,0.80
2019-02-18T07:05:59.380Z,0.80
2019-02-18T07:08:46.991Z,0.80
2019-02-18T07:11:22.026Z,1.00
2019-02-18T07:13:49.498Z,1.00
2019-02-18T07:16:17.293Z,1.20
2019-02-18T07:18:44.716Z,1.20
2019-02-18T07:21:12.123Z,1.30
2019-02-18T07:23:39.574Z,1.40
2019-02-18T07:26:07.019Z,1.40
2019-02-18T07:28:54.310Z,1.40
2019-02-18T07:31:21.684Z,1.60
2019-02-18T07:33:49.097Z,1.60
2019-02-18T07:36:16.500Z,1.70
2019-02-18T07:38:43.896Z,1.80
2019-02-18T07:41:11.669Z,2.00
2019-02-18T07:43:38.967Z,2.10
2019-02-18T07:46:06.301Z,2.20
2019-02-18T07:48:33.680Z,2.20
2019-02-18T07:51:01.318Z,2.30
2019-02-18T07:53:28.633Z,2.30
2019-02-18T07:55:56.070Z,2.40
2019-02-18T07:58:23.385Z,2.50
2019-02-18T08:00:50.788Z,2.60
2019-02-18T08:03:18.162Z,2.60
2019-02-18T08:05:45.488Z,2.70
2019-02-18T08:08:12.909Z,2.80
2019-02-18T08:10:40.210Z,2.80
2019-02-18T08:13:07.534Z,2.70
2019-02-18T08:15:34.865Z,2.80
2019-02-18T08:18:02.256Z,2.90
2019-02-18T08:20:29.684Z,3.00
2019-02-18T08:22:57.061Z,3.30
2019-02-18T08:25:24.477Z,3.40
2019-02-18T08:27:51.937Z,3.50
2019-02-18T08:30:19.344Z,3.70
2019-02-18T08:32:46.804Z,3.70
2019-02-18T08:35:14.121Z,3.70
2019-02-18T08:37:41.406Z,3.80
2019-02-18T08:40:08.778Z,3.90
2019-02-18T08:42:36.188Z,4.00
2019-02-18T08:45:03.811Z,4.10
2019-02-18T08:47:31.233Z,4.20
2019-02-18T08:49:58.649Z,4.20
2019-02-18T08:52:26.017Z,4.30
2019-02-18T08:54:56.453Z,4.30
2019-02-18T08:57:22.537Z,4.40
2019-02-18T08:59:50.233Z,4.50
2019-02-18T09:02:17.615Z,4.50
2019-02-18T09:04:45.247Z,4.60
2019-02-18T09:07:12.609Z,4.70
2019-02-18T09:09:39.986Z,4.80
2019-02-18T09:12:07.303Z,4.90
2019-02-18T09:14:34.626Z,5.00
2019-02-18T09:17:02.044Z,5.20
2019-02-18T09:19:29.358Z,5.30
2019-02-18T09:22:21.975Z,5.50
2019-02-18T09:24:55.973Z,5.60
2019-02-18T09:27:23.503Z,5.90
2019-02-18T09:29:51.150Z,6.10
2019-02-18T09:32:18.463Z,6.10
2019-02-18T09:34:45.785Z,6.30
2019-02-18T09:37:13.210Z,6.60
2019-02-18T09:39:40.586Z,6.70
2019-02-18T09:42:07.971Z,7.00
2019-02-18T09:44:35.292Z,7.20
2019-02-18T09:47:02.599Z,7.80
2019-02-18T09:49:29.998Z,8.40
2019-02-18T09:51:57.424Z,8.60
2019-02-18T09:54:24.882Z,8.70
2019-02-18T09:56:52.283Z,9.30
2019-02-18T09:59:19.629Z,9.70
2019-02-18T10:01:46.948Z,9.90
2019-02-18T10:04:14.712Z,10.20
2019-02-18T10:06:42.132Z,10.40
2019-02-18T10:09:09.437Z,10.50
2019-02-18T10:11:37.119Z,10.70
2019-02-18T10:14:04.533Z,10.90
2019-02-18T10:16:32.273Z,10.90
2019-02-18T10:19:02.567Z,11.10
2019-02-18T10:21:30.001Z,11.20
2019-02-18T10:23:57.404Z,11.20
2019-02-18T10:26:24.772Z,11.70
2019-02-18T10:28:52.179Z,12.10
2019-02-18T10:31:19.920Z,12.20
2019-02-18T10:33:47.638Z,12.60
2019-02-18T10:36:15.024Z,12.80
2019-02-18T10:38:42.490Z,13.00
2019-02-18T10:41:09.879Z,13.30
2019-02-18T10:43:37.609Z,13.40
2019-02-18T10:46:05.922Z,13.40
2019-02-18T10:48:33.369Z,13.20
2019-02-18T10:51:00.799Z,13.40
2019-02-18T10:53:28.240Z,13.20
2019-02-18T10:55:55.728Z,13.50
2019-02-18T10:58:23.613Z,13.90
2019-02-18T11:00:51.081Z,14.00
2019-02-18T11:03:19.342Z,14.40
2019-02-18T11:05:46.747Z,14.60
2019-02-18T11:08:14.144Z,14.90
2019-02-18T11:10:41.479Z,15.40
2019-02-18T11:13:08.945Z,15.80
2019-02-18T11:15:36.699Z,16.00
2019-02-18T11:18:04.220Z,16.50
2019-02-18T11:20:31.613Z,17.10
2019-02-18T11:22:59.012Z,18.00
2019-02-18T11:25:26.465Z,18.50
2019-02-18T11:27:53.891Z,19.20
2019-02-18T11:30:21.638Z,20.00
2019-02-18T11:32:49.075Z,20.90
2019-02-18T11:35:16.524Z,21.40
2019-02-18T11:37:44.342Z,21.70
2019-02-18T11:40:12.824Z,22.10
2019-02-18T11:42:40.532Z,22.90
2019-02-18T11:45:10.290Z,23.10
2019-02-18T11:47:37.675Z,23.50
2019-02-18T11:50:05.594Z,23.70
2019-02-18T11:52:32.998Z,23.40
2019-02-18T11:55:00.328Z,23.00
2019-02-18T11:57:27.774Z,22.40
2019-02-18T11:59:55.200Z,21.60
2019-02-18T12:02:22.838Z,21.00
2019-02-18T12:04:50.327Z,20.40
2019-02-18T12:07:17.726Z,19.70
2019-02-18T12:09:45.139Z,19.70
2019-02-18T12:12:12.583Z,20.10
2019-02-18T12:14:40.051Z,20.50
2019-02-18T12:17:07.463Z,21.10
2019-02-18T12:19:35.284Z,22.20
2019-02-18T12:22:02.688Z,23.40
2019-02-18T12:24:49.599Z,24.00
2019-02-18T12:27:16.986Z,24.30
2019-02-18T12:29:44.438Z,24.50
2019-02-18T12:32:12.275Z,25.20
2019-02-18T12:34:40.067Z,25.80
2019-02-18T12:37:07.440Z,26.20
2019-02-18T12:39:34.795Z,26.40
2019-02-18T12:42:02.219Z,26.30
2019-02-18T12:44:29.627Z,25.90
2019-02-18T12:46:57.019Z,25.30
2019-02-18T12:49:24.844Z,25.00
2019-02-18T12:51:52.286Z,25.40
2019-02-18T12:54:19.777Z,26.10
2019-02-18T12:56:47.209Z,26.60
2019-02-18T12:59:14.762Z,26.60
2019-02-18T13:01:42.524Z,27.20
2019-02-18T13:04:09.962Z,28.40
2019-02-18T13:06:37.710Z,29.60
2019-02-18T13:09:05.537Z,31.10
2019-02-18T13:11:33.375Z,32.40
2019-02-18T13:14:00.833Z,33.40
2019-02-18T13:16:28.271Z,34.60
2019-02-18T13:18:55.695Z,36.30
2019-02-18T13:21:23.140Z,38.10
2019-02-18T13:23:51.968Z,39.90
2019-02-18T13:26:19.382Z,40.70
2019-02-18T13:28:46.911Z,41.30
2019-02-18T13:31:14.854Z,41.80
2019-02-18T13:33:42.576Z,42.20
2019-02-18T13:36:13.026Z,42.60
2019-02-18T13:38:40.444Z,43.40
2019-02-18T13:41:07.904Z,44.20
2019-02-18T13:43:35.361Z,45.10
2019-02-18T13:46:02.836Z,45.90
2019-02-18T13:48:30.516Z,46.60
2019-02-18T13:50:57.966Z,47.20
2019-02-18T13:53:25.378Z,47.80
2019-02-18T13:55:52.820Z,48.30
2019-02-18T13:58:20.276Z,48.80
2019-02-18T14:00:47.769Z,49.20
2019-02-18T14:03:15.256Z,49.50
2019-02-18T14:05:43.053Z,49.50
2019-02-18T14:08:10.660Z,49.20
2019-02-18T14:10:38.108Z,49.20
2019-02-18T14:13:05.550Z,48.80
2019-02-18T14:15:33.004Z,48.50
2019-02-18T14:18:00.309Z,48.30
2019-02-18T14:20:27.854Z,47.70
2019-02-18T14:22:55.817Z,47.10
2019-02-18T14:25:23.249Z,45.50
2019-02-18T14:27:50.687Z,42.50
2019-02-18T14:30:18.215Z,38.90
2019-02-18T14:32:45.638Z,36.20
2019-02-18T14:35:14.686Z,35.60
2019-02-18T14:37:42.107Z,37.20
2019-02-18T14:40:12.089Z,38.60
2019-02-18T14:42:39.651Z,39.70
2019-02-18T14:45:07.323Z,40.20
2019-02-18T14:47:34.787Z,40.00
2019-02-18T14:50:02.165Z,39.40
2019-02-18T14:52:29.866Z,38.00
2019-02-18T14:54:57.337Z,36.50
2019-02-18T14:57:24.897Z,34.80
2019-02-18T14:59:52.301Z,33.00
2019-02-18T15:02:20.099Z,31.30
2019-02-18T15:04:47.749Z,29.80
2019-02-18T15:07:15.403Z,28.40
2019-02-18T15:09:43.003Z,27.30
2019-02-18T15:12:10.885Z,26.40
2019-02-18T15:14:39.098Z,25.60
2019-02-18T15:17:07.367Z,24.80
2019-02-18T15:19:35.723Z,24.20
2019-02-18T15:22:03.813Z,23.70
2019-02-18T15:24:32.317Z,23.30
2019-02-18T15:27:00.201Z,23.00
2019-02-18T15:29:28.747Z,22.80
2019-02-18T15:31:56.474Z,22.30
2019-02-18T15:34:24.076Z,21.80
2019-02-18T15:36:51.684Z,21.20
2019-02-18T15:39:19.231Z,20.70
2019-02-18T15:41:47.689Z,20.40
2019-02-18T15:44:15.678Z,20.20
2019-02-18T15:46:44.042Z,20.00
2019-02-18T15:49:11.509Z,19.80
2019-02-18T15:51:38.999Z,19.50
2019-02-18T15:54:06.484Z,19.30
2019-02-18T15:56:34.148Z,18.90
2019-02-18T15:59:02.289Z,18.60
2019-02-18T16:01:29.868Z,18.30
2019-02-18T16:03:57.758Z,18.00
2019-02-18T16:06:25.409Z,17.60
2019-02-18T16:08:53.177Z,17.30
2019-02-18T16:11:23.814Z,17.00
2019-02-18T16:13:51.634Z,16.60
2019-02-18T16:16:19.096Z,16.30
2019-02-18T16:18:46.662Z,16.10
2019-02-18T16:21:14.519Z,15.80
2019-02-18T16:23:41.994Z,15.60
2019-02-18T16:26:09.439Z,15.40
2019-02-18T16:28:36.935Z,15.00
2019-02-18T16:31:04.343Z,14.70
2019-02-18T16:33:31.909Z,14.20
2019-02-18T16:35:59.325Z,13.90
2019-02-18T16:38:26.788Z,13.60
2019-02-18T16:40:54.592Z,13.30
2019-02-18T16:43:22.627Z,13.10
2019-02-18T16:45:50.441Z,12.90
2019-02-18T16:48:18.953Z,12.70
2019-02-18T16:50:47.292Z,12.50
2019-02-18T16:53:15.372Z,12.40
2019-02-18T16:55:42.815Z,12.20
2019-02-18T16:58:10.329Z,12.00
2019-02-18T17:00:37.857Z,11.90
2019-02-18T17:03:05.338Z,11.70
2019-02-18T17:05:32.807Z,11.60
2019-02-18T17:08:00.309Z,11.30
2019-02-18T17:10:28.212Z,11.10
2019-02-18T17:12:55.744Z,11.00
2019-02-18T17:15:23.234Z,10.90
2019-02-18T17:17:50.702Z,10.70
2019-02-18T17:20:18.524Z,10.60
2019-02-18T17:22:45.982Z,10.70
2019-02-18T17:25:13.449Z,10.60
2019-02-18T17:27:40.907Z,10.60
2019-02-18T17:30:10.062Z,10.50
2019-02-18T17:32:37.512Z,10.40
2019-02-18T17:35:06.613Z,10.30
2019-02-18T17:37:34.049Z,10.20
2019-02-18T17:40:04.286Z,10.20
2019-02-18T17:42:32.116Z,10.10
2019-02-18T17:44:59.792Z,10.10
2019-02-18T17:47:27.192Z,10.00
2019-02-18T17:49:54.710Z,9.90
2019-02-18T17:52:22.411Z,9.80
2019-02-18T17:54:49.896Z,9.80
2019-02-18T17:57:17.890Z,9.60
2019-02-18T17:59:45.324Z,9.40
2019-02-18T18:02:13.075Z,9.30
2019-02-18T18:04:40.790Z,9.20
2019-02-18T18:07:08.295Z,9.10
2019-02-18T18:09:35.723Z,9.00
2019-02-18T18:12:03.229Z,8.90
2019-02-18T18:14:30.655Z,8.90
2019-02-18T18:16:58.126Z,8.80
2019-02-18T18:19:26.152Z,8.60
2019-02-18T18:21:54.032Z,8.30
2019-02-18T18:24:21.777Z,8.10
2019-02-18T18:26:49.266Z,8.00
2019-02-18T18:29:17.816Z,7.90
2019-02-18T18:31:45.276Z,7.90
2019-02-18T18:34:12.752Z,7.90
2019-02-18T18:36:40.772Z,8.00
2019-02-18T18:39:08.800Z,8.00
2019-02-18T18:41:36.289Z,8.10
2019-02-18T18:44:03.885Z,8.10
2019-02-18T18:46:31.813Z,8.00
2019-02-18T18:48:59.756Z,7.90
2019-02-18T18:51:27.210Z,7.90
2019-02-18T18:53:54.987Z,8.00
2019-02-18T18:56:22.393Z,8.00
2019-02-18T18:58:50.196Z,7.90
2019-02-18T19:01:17.553Z,7.80
2019-02-18T19:03:45.002Z,7.70
2019-02-18T19:06:12.467Z,7.60
2019-02-18T19:08:39.972Z,7.60
2019-02-18T19:11:07.500Z,7.50
2019-02-18T19:13:41.911Z,7.50
2019-02-18T19:16:04.643Z,7.50
2019-02-18T19:18:32.144Z,7.40
2019-02-18T19:20:59.990Z,7.30
2019-02-18T19:23:27.505Z,7.30
2019-02-18T19:25:55.237Z,7.20
2019-02-18T19:28:22.750Z,7.20
2019-02-18T19:30:50.288Z,7.20
2019-02-18T19:33:17.799Z,7.20
2019-02-18T19:35:45.306Z,7.10
2019-02-18T19:38:13.380Z,7.00
2019-02-18T19:40:40.856Z,7.00
2019-02-18T19:43:08.732Z,6.90
2019-02-18T19:45:36.187Z,6.70
2019-02-18T19:48:03.670Z,6.60
2019-02-18T19:50:31.913Z,6.60
2019-02-18T19:52:59.407Z,6.60
2019-02-18T19:55:26.860Z,6.50
2019-02-18T19:57:54.353Z,6.50
2019-02-18T20:00:22.476Z,6.50
2019-02-18T20:02:49.912Z,6.50
2019-02-18T20:05:17.506Z,6.40
2019-02-18T20:07:44.934Z,6.30
2019-02-18T20:10:12.753Z,6.30
2019-02-18T20:12:40.263Z,6.30
2019-02-18T20:15:09.008Z,6.30
2019-02-18T20:17:36.649Z,6.30
2019-02-18T20:20:04.456Z,6.30
2019-02-18T20:22:31.971Z,6.20
2019-02-18T20:24:59.806Z,6.20
2019-02-18T20:27:27.277Z,6.10
2019-02-18T20:29:54.805Z,6.10
2019-02-18T20:32:23.095Z,6.00
2019-02-18T20:34:50.590Z,6.10
2019-02-18T20:37:18.174Z,6.10
2019-02-18T20:39:45.604Z,6.00
2019-02-18T20:42:13.044Z,6.00
2019-02-18T20:44:40.549Z,5.90
2019-02-18T20:47:08.107Z,5.80
2019-02-18T20:49:35.908Z,5.80
2019-02-18T20:52:03.437Z,5.80
2019-02-18T20:54:31.032Z,5.80
2019-02-18T20:56:58.527Z,5.70
2019-02-18T20:59:26.414Z,5.60
2019-02-18T21:01:54.404Z,5.50
2019-02-18T21:04:22.386Z,5.50
2019-02-18T21:06:50.845Z,5.50
2019-02-18T21:09:18.686Z,5.50
2019-02-18T21:11:46.574Z,5.40
2019-02-18T21:14:16.350Z,5.40
2019-02-18T21:16:43.975Z,5.30
2019-02-18T21:19:11.460Z,5.30
2019-02-18T21:21:39.220Z,5.30
2019-02-18T21:24:06.686Z,5.30
2019-02-18T21:26:34.148Z,5.30
2019-02-18T21:29:01.656Z,5.30
2019-02-18T21:31:29.144Z,5.30
2019-02-18T21:33:56.570Z,5.30
2019-02-18T21:36:24.131Z,5.20
2019-02-18T21:38:51.962Z,5.20
2019-02-18T21:41:19.351Z,5.20
2019-02-18T21:43:46.864Z,5.20
2019-02-18T21:46:14.307Z,5.20
2019-02-18T21:48:41.653Z,5.20
2019-02-18T21:51:09.077Z,5.30
2019-02-18T21:53:36.502Z,5.40
2019-02-18T21:56:04.666Z,5.50
2019-02-18T21:58:32.134Z,5.60
2019-02-18T22:00:59.892Z,5.60
2019-02-18T22:03:27.290Z,5.50
2019-02-18T22:05:54.629Z,5.40
2019-02-18T22:08:22.101Z,5.40
2019-02-18T22:10:49.544Z,5.60
2019-02-18T22:13:17.280Z,5.50
2019-02-18T22:15:45.007Z,5.40
2019-02-18T22:18:12.409Z,5.40
2019-02-18T22:20:39.970Z,5.50
2019-02-18T22:23:07.294Z,5.50
2019-02-18T22:25:34.728Z,5.60
2019-02-18T22:28:02.734Z,5.50
2019-02-18T22:30:30.156Z,5.40
2019-02-18T22:32:58.026Z,5.50
2019-02-18T22:35:25.439Z,5.50
2019-02-18T22:37:52.849Z,5.50
2019-02-18T22:40:20.615Z,5.30
2019-02-18T22:42:48.392Z,5.30
2019-02-18T22:45:15.806Z,5.50
2019-02-18T22:47:43.232Z,5.30
2019-02-18T22:50:10.967Z,5.20
2019-02-18T22:52:38.378Z,5.30
2019-02-18T22:55:05.759Z,5.30
2019-02-18T22:57:33.160Z,5.20
2019-02-18T23:00:00.519Z,5.10
2019-02-18T23:02:28.030Z,5.10
2019-02-18T23:04:55.312Z,5.10
2019-02-18T23:07:22.783Z,5.00
2019-02-18T23:09:50.732Z,4.90
2019-02-18T23:12:18.138Z,5.00
2019-02-18T23:14:50.446Z,5.10
2019-02-18T23:17:15.078Z,5.10
2019-02-18T23:19:42.384Z,5.10
2019-02-18T23:22:09.807Z,4.90
2019-02-18T23:24:37.132Z,5.00
2019-02-18T23:27:04.984Z,4.90
2019-02-18T23:29:32.313Z,4.80
2019-02-18T23:31:59.741Z,4.90
2019-02-18T23:34:27.061Z,4.90
2019-02-18T23:36:54.514Z,4.80
2019-02-18T23:39:21.792Z,4.90
2019-02-18T23:41:49.222Z,4.80
2019-02-18T23:44:16.980Z,4.70
2019-02-18T23:46:44.623Z,4.70
2019-02-18T23:49:11.921Z,4.70
2019-02-18T23:51:39.361Z,4.70
2019-02-18T23:54:06.740Z,4.80
2019-02-18T23:56:34.154Z,4.80
2019-02-18T23:59:01.556Z,4.80
